Navios Orbiter — HPWU — position and weather

sailwx.info

Track history (hours):
 
Tides and Currents Weather Stations Pressure Air Temp Water Temp Dewpoint Dewpoint Depression Visibility Wind Speed Wind Dir Waves Ship Positions

Navios Orbiter

Last reported at 2017-Sep-29 09:54 UTC. Time now 2017-Oct-17 04:17 UTC.
Position N 40°02' W 031°52'.
Warning: this ship's position is 17 days out of date.

Length 225 m; draft 8.9 m.

Type: Cargo ship. MMSI: 356276000.

Date/timePositionNaut miles runAvg speedWind from/ knotsBaromVisibWave heightAir tempDewpointWater temp
2017-Sep-29 09:54N 40°02' W 031°52'712.2
2017-Sep-29 09:21N 40°03' W 031°43'2312.3
2017-Sep-29 07:29N 40°08' W 031°14'612.5
2017-Sep-29 07:00N 40°09' W 031°06'3312.7
2017-Sep-29 04:26N 40°14' W 030°24'612.5
2017-Sep-29 03:56N 40°15' W 030°16'612.8
2017-Sep-29 03:29N 40°16' W 030°08'712.8
2017-Sep-29 02:56N 40°17' W 029°59'  
2017-Sep-26 20:46N 39°36' W 015°39'312.8
2017-Sep-26 20:31N 39°35' W 015°34'612.8
2017-Sep-26 20:00N 39°33' W 015°27'912.8
2017-Sep-26 19:17N 39°30' W 015°15'412.9
2017-Sep-26 18:59N 39°29' W 015°10'813.0
2017-Sep-26 18:20N 39°26' W 014°60'412.8
2017-Sep-26 18:00N 39°25' W 014°55'612.7
2017-Sep-26 17:31N 39°23' W 014°47'612.8
2017-Sep-26 17:00N 39°21' W 014°39'612.9
2017-Sep-26 16:31N 39°19' W 014°31'612.8
2017-Sep-26 16:01N 39°17' W 014°23'812.7
2017-Sep-26 15:21N 39°15' W 014°13'512.7
2017-Sep-26 14:58N 39°13' W 014°07'1312.9
2017-Sep-26 13:58N 39°09' W 013°51'613.2
2017-Sep-26 13:31N 39°08' W 013°44'713.0
2017-Sep-26 13:00N 39°06' W 013°35'612.7
2017-Sep-26 12:31N 39°04' W 013°28'612.7
2017-Sep-26 12:01N 39°02' W 013°20'612.9
2017-Sep-26 11:30N 38°60' W 013°12'713.2
2017-Sep-26 11:01N 38°58' W 013°04'713.4
2017-Sep-26 10:30N 38°56' W 012°56'913.4
2017-Sep-26 09:51N 38°53' W 012°45'513.4
2017-Sep-26 09:30N 38°52' W 012°39'713.5
2017-Sep-26 09:00N 38°50' W 012°31'1213.4
2017-Sep-26 08:06N 38°46' W 012°16'313.2
2017-Sep-26 07:51N 38°45' W 012°12'612.9
2017-Sep-26 07:21N 38°43' W 012°04'813.4
2017-Sep-26 06:44N 38°41' W 011°54'413.4
2017-Sep-26 06:28N 38°40' W 011°50'1313.1
2017-Sep-26 05:29N 38°36' W 011°34'612.9
2017-Sep-26 05:00N 38°34' W 011°26'713.4
2017-Sep-26 04:30N 38°32' W 011°18'813.1
2017-Sep-26 03:54N 38°30' W 011°09'513.2
2017-Sep-26 03:31N 38°28' W 011°02'813.3
2017-Sep-26 02:55N 38°26' W 010°53'512.9
2017-Sep-26 02:30N 38°24' W 010°46'612.7
2017-Sep-26 02:00N 38°22' W 010°38'613.0
2017-Sep-26 01:31N 38°20' W 010°31'713.1
2017-Sep-26 01:01N 38°20' W 010°22'612.8
2017-Sep-26 00:30N 38°20' W 010°14'713.0
2017-Sep-26 00:00N 38°20' W 010°06'612.8
2017-Sep-25 23:31N 38°20' W 009°58'612.8
2017-Sep-25 23:01N 38°20' W 009°49'612.3
2017-Sep-25 22:30N 38°20' W 009°42'612.5
2017-Sep-25 22:00N 38°20' W 009°34'612.4
2017-Sep-25 21:31N 38°20' W 009°26'612.6
2017-Sep-25 21:01N 38°20' W 009°18'611.4
2017-Sep-25 20:30N 38°17' W 009°11'5 9.1
2017-Sep-25 20:01N 38°15' W 009°06'1 2.6
2017-Sep-25 19:31N 38°16' W 009°04'1 1.7
2017-Sep-25 19:00N 38°16' W 009°05'1 1.7
2017-Sep-25 18:31N 38°17' W 009°05'1 1.6
2017-Sep-25 18:00N 38°18' W 009°05'1 1.6
2017-Sep-25 17:31N 38°19' W 009°05'1 2.1
2017-Sep-25 17:00N 38°20' W 009°05'4 8.1
2017-Sep-25 16:31N 38°23' W 009°02'2 3.3
2017-Sep-25 16:00N 38°24' W 009°00'0 0.9
2017-Sep-25 15:30N 38°24' W 009°01'1 1.1
2017-Sep-25 15:00N 38°23' W 009°01'1 2.4
2017-Sep-25 14:31N 38°22' W 009°00'4 7.4
2017-Sep-25 14:01N 38°25' W 008°57'1 2.7
2017-Sep-25 13:31N 38°23' W 008°57'4 7.2
2017-Sep-25 13:01N 38°27' W 008°59'4 8.5
2017-Sep-25 12:31N 38°30' W 008°55'3 6.0
2017-Sep-25 12:00N 38°29' W 008°52'3 5.6
2017-Sep-25 11:31N 38°28' W 008°48'1 1.8
2017-Sep-25 11:00N 38°28' W 008°47'0 0.0
2017-Sep-25 10:30N 38°28' W 008°47'0 0.0
2017-Sep-25 09:57N 38°28' W 008°47'0 0.0
2017-Sep-25 09:27N 38°28' W 008°47'0 0.0
2017-Sep-25 09:00N 38°28' W 008°47'0 0.0
2017-Sep-25 08:30N 38°28' W 008°47'0 0.0
2017-Sep-25 06:27N 38°28' W 008°47'0 0.0
2017-Sep-25 05:21N 38°28' W 008°47'0 0.0
2017-Sep-25 05:00N 38°28' W 008°47'0 0.0
2017-Sep-25 04:18N 38°28' W 008°47'0 0.0
2017-Sep-25 02:33N 38°28' W 008°47'0 0.0
2017-Sep-25 02:24N 38°28' W 008°47'0 0.0
2017-Sep-25 00:15N 38°28' W 008°47'0 0.0
2017-Sep-25 00:00N 38°28' W 008°47'0 0.0
2017-Sep-24 23:30N 38°28' W 008°47'0 0.0
2017-Sep-24 23:00N 38°28' W 008°47'0 0.0
2017-Sep-24 22:30N 38°28' W 008°47'0 0.0
2017-Sep-24 22:00N 38°28' W 008°47'0 0.0
2017-Sep-24 21:30N 38°28' W 008°47'0 0.0
2017-Sep-24 21:00N 38°28' W 008°47'0 0.0
2017-Sep-24 20:30N 38°28' W 008°47'0 0.0
2017-Sep-24 20:00N 38°28' W 008°47'0 0.0
2017-Sep-24 19:30N 38°28' W 008°47'0 0.0
2017-Sep-24 19:00N 38°28' W 008°47'0 0.0
2017-Sep-24 18:21N 38°28' W 008°47'0 0.0
2017-Sep-24 18:00N 38°28' W 008°47'0 0.0
2017-Sep-24 17:30N 38°28' W 008°47'0 0.0
2017-Sep-24 17:00N 38°28' W 008°47'0 0.0
2017-Sep-24 16:30N 38°28' W 008°47'0 0.0
2017-Sep-24 16:00N 38°28' W 008°47'0 0.0
2017-Sep-24 15:30N 38°28' W 008°47'0 0.0
2017-Sep-24 15:00N 38°28' W 008°47'0 0.0
2017-Sep-24 14:30N 38°28' W 008°47'0 0.0
2017-Sep-24 14:00N 38°28' W 008°47'0 0.0
2017-Sep-24 13:30N 38°28' W 008°47'0 0.0
2017-Sep-24 13:00N 38°28' W 008°47'0 0.0
2017-Sep-24 12:30N 38°28' W 008°47'0 0.0
2017-Sep-24 11:57N 38°28' W 008°47'0 0.0
2017-Sep-24 11:30N 38°28' W 008°47'0 0.0
2017-Sep-24 11:00N 38°28' W 008°47'0 0.0
2017-Sep-24 10:30N 38°28' W 008°47'0 0.0
2017-Sep-24 10:00N 38°28' W 008°47'0 0.0
2017-Sep-24 09:30N 38°28' W 008°47'0 0.0
2017-Sep-24 09:00N 38°28' W 008°47'0 0.0
2017-Sep-24 08:30N 38°28' W 008°47'0 0.0
2017-Sep-24 08:00N 38°28' W 008°47'0 0.0
2017-Sep-24 07:27N 38°28' W 008°47'0 0.0
2017-Sep-24 07:00N 38°28' W 008°47'0 0.0
2017-Sep-24 06:30N 38°28' W 008°47'0 0.0
2017-Sep-24 06:00N 38°28' W 008°47'0 0.0
2017-Sep-24 05:30N 38°28' W 008°47'0 0.0
2017-Sep-24 05:00N 38°28' W 008°47'0 0.0
2017-Sep-24 04:30N 38°28' W 008°47'0 0.0
2017-Sep-24 03:59N 38°28' W 008°47'0 0.0
2017-Sep-24 03:30N 38°28' W 008°47'0 0.0
2017-Sep-24 02:57N 38°28' W 008°47'0 0.0
2017-Sep-24 02:30N 38°28' W 008°47'0 0.0
2017-Sep-24 02:00N 38°28' W 008°47'0 0.0
2017-Sep-24 01:29N 38°28' W 008°47'0 0.0
2017-Sep-24 01:00N 38°28' W 008°47'0 0.0
2017-Sep-24 00:30N 38°28' W 008°47'0 0.0
2017-Sep-24 00:00N 38°28' W 008°47'0 0.0
2017-Sep-23 23:27N 38°28' W 008°47'0 0.0
2017-Sep-23 23:00N 38°28' W 008°47'0 0.0
2017-Sep-23 22:27N 38°28' W 008°47'0 0.0
2017-Sep-23 22:00N 38°28' W 008°47'0 0.0
2017-Sep-23 21:30N 38°28' W 008°47'0 0.0
2017-Sep-23 21:00N 38°28' W 008°47'0 0.0
2017-Sep-23 20:30N 38°28' W 008°47'0 0.0
2017-Sep-23 20:00N 38°28' W 008°47'0 0.0
2017-Sep-22 02:00N 38°28' W 008°47'0 0.0
2017-Sep-22 01:30N 38°28' W 008°47'0 0.0
2017-Sep-22 01:00N 38°28' W 008°47'0 0.0
2017-Sep-22 00:30N 38°28' W 008°47'0 0.0
2017-Sep-22 00:00N 38°28' W 008°47'0 0.0
2017-Sep-21 23:30N 38°28' W 008°47'0 0.0
2017-Sep-21 23:00N 38°28' W 008°47'0 0.0
2017-Sep-21 22:27N 38°28' W 008°47'0 0.0
2017-Sep-21 22:00N 38°28' W 008°47'0 0.0
2017-Sep-21 21:27N 38°28' W 008°47'0 0.0
2017-Sep-21 20:57N 38°28' W 008°47'0 0.0
2017-Sep-21 20:30N 38°28' W 008°47'0 0.0
2017-Sep-21 19:54N 38°28' W 008°47'0 0.0
2017-Sep-21 19:30N 38°28' W 008°47'0 0.0
2017-Sep-21 19:00N 38°28' W 008°47'0 0.0
2017-Sep-21 18:30N 38°28' W 008°47'0 0.0
2017-Sep-21 18:00N 38°28' W 008°47'0 0.0
2017-Sep-21 17:30N 38°28' W 008°47'0 0.0
2017-Sep-21 16:57N 38°28' W 008°47'0 0.0
2017-Sep-21 16:30N 38°28' W 008°47'0 0.0
2017-Sep-21 16:00N 38°28' W 008°47'0 0.0
2017-Sep-21 15:30N 38°28' W 008°47'0 0.0
2017-Sep-21 15:00N 38°28' W 008°47'0 0.0
2017-Sep-21 14:30N 38°28' W 008°47'0 0.0
2017-Sep-21 14:00N 38°28' W 008°47'0 0.0
2017-Sep-21 13:30N 38°28' W 008°47'0 0.0
2017-Sep-21 13:00N 38°28' W 008°47'0 0.0
2017-Sep-21 12:30N 38°28' W 008°47'0 0.0
2017-Sep-21 12:00N 38°28' W 008°47'0 0.0
2017-Sep-21 11:30N 38°28' W 008°47'0 0.0
2017-Sep-21 10:51N 38°28' W 008°47'0 0.0
2017-Sep-21 10:30N 38°28' W 008°47'0 0.0
2017-Sep-21 10:00N 38°28' W 008°47'0 0.0
2017-Sep-21 09:30N 38°28' W 008°47'0 0.0
2017-Sep-21 09:00N 38°28' W 008°47'0 0.0
2017-Sep-21 08:30N 38°28' W 008°47'0 0.0
2017-Sep-21 08:00N 38°28' W 008°47'0 0.0
2017-Sep-21 07:30N 38°28' W 008°47'0 0.0
2017-Sep-21 07:00N 38°28' W 008°47'0 0.0
2017-Sep-21 06:24N 38°28' W 008°47'0 0.0
2017-Sep-21 06:00N 38°28' W 008°47'0 0.0
2017-Sep-21 05:30N 38°28' W 008°47'0 0.0
2017-Sep-21 04:57N 38°28' W 008°47'0 0.0
2017-Sep-21 04:30N 38°28' W 008°47'0 0.0
2017-Sep-21 04:00N 38°28' W 008°47'0 0.0
2017-Sep-21 03:30N 38°28' W 008°47'0 0.3
2017-Sep-21 02:57N 38°28' W 008°47'0 0.5
2017-Sep-21 02:30N 38°28' W 008°47'0 0.0
2017-Sep-21 02:00N 38°28' W 008°47'0 0.0
2017-Sep-21 01:27N 38°28' W 008°47'0 0.0
2017-Sep-21 01:00N 38°28' W 008°47'0 0.0
2017-Sep-21 00:30N 38°28' W 008°47'0 0.0
2017-Sep-21 00:00N 38°28' W 008°47'0 0.0
2017-Sep-20 23:30N 38°28' W 008°47'0 0.0
2017-Sep-20 23:00N 38°28' W 008°47'0 0.0
2017-Sep-20 22:30N 38°28' W 008°47'0 0.0
2017-Sep-20 22:00N 38°28' W 008°47'0 0.0
2017-Sep-20 21:27N 38°28' W 008°47'0 0.0
2017-Sep-20 21:00N 38°28' W 008°47'0 0.0
2017-Sep-20 20:30N 38°28' W 008°47'0 0.1
2017-Sep-20 20:00N 38°28' W 008°47'0 0.1
2017-Sep-20 19:30N 38°29' W 008°47'0 0.2
2017-Sep-20 19:00N 38°29' W 008°47'0 0.0
2017-Sep-20 18:30N 38°29' W 008°47'0 0.0
2017-Sep-20 18:00N 38°29' W 008°47'0 0.0
2017-Sep-20 17:30N 38°29' W 008°47'0 0.0
2017-Sep-20 17:00N 38°29' W 008°47'0 0.0
2017-Sep-20 16:30N 38°29' W 008°47'0 0.0
2017-Sep-20 16:00N 38°29' W 008°47'0 0.0
2017-Sep-20 15:30N 38°29' W 008°47'0 0.0
2017-Sep-20 15:00N 38°29' W 008°47'0 0.0
2017-Sep-20 13:33N 38°29' W 008°47'0 0.0
2017-Sep-20 13:24N 38°29' W 008°47'0 0.0
2017-Sep-20 13:00N 38°29' W 008°47'0 0.0
2017-Sep-20 12:30N 38°29' W 008°47'0 0.0
2017-Sep-20 12:00N 38°29' W 008°47'0 0.0
2017-Sep-20 11:30N 38°29' W 008°47'0 0.0
2017-Sep-20 11:00N 38°29' W 008°47'0 0.0
2017-Sep-20 10:30N 38°29' W 008°47'0 0.0
2017-Sep-20 10:00N 38°29' W 008°47'0 0.0
2017-Sep-20 09:08N 38°29' W 008°47'0 0.0
2017-Sep-20 09:00N 38°29' W 008°47'0 0.0
2017-Sep-20 08:30N 38°29' W 008°47'0 0.0
2017-Sep-20 08:00N 38°29' W 008°47'0 0.0
2017-Sep-20 07:27N 38°29' W 008°47'0 0.0
2017-Sep-20 06:57N 38°29' W 008°47'0 0.0
2017-Sep-20 06:30N 38°29' W 008°47'0 0.0
2017-Sep-20 06:00N 38°29' W 008°47'0 0.0
2017-Sep-20 05:27N 38°29' W 008°47'0 0.0
2017-Sep-20 04:57N 38°29' W 008°47'0 0.0
2017-Sep-20 04:29N 38°29' W 008°47'0 0.0
2017-Sep-20 04:00N 38°29' W 008°47'0 0.0
2017-Sep-20 03:30N 38°29' W 008°47'0 0.0
2017-Sep-20 03:00N 38°29' W 008°47'0 0.0
2017-Sep-20 02:30N 38°29' W 008°47'0 0.0
2017-Sep-20 02:00N 38°29' W 008°47'0 0.0
2017-Sep-20 01:30N 38°29' W 008°47'0 0.0
2017-Sep-20 01:00N 38°29' W 008°47'0 0.0
2017-Sep-20 00:30N 38°29' W 008°47'0 0.0
2017-Sep-20 00:00N 38°29' W 008°47'0 0.0
2017-Sep-19 23:30N 38°29' W 008°47'0 0.0
2017-Sep-19 23:00N 38°29' W 008°47'0 0.0
2017-Sep-19 22:30N 38°29' W 008°47'0 0.0
2017-Sep-19 22:00N 38°29' W 008°47'0 0.0
2017-Sep-19 21:27N 38°29' W 008°47'0 0.0
2017-Sep-19 21:00N 38°29' W 008°47'0 0.0
2017-Sep-19 20:30N 38°29' W 008°47'0 0.0
2017-Sep-19 19:57N 38°29' W 008°47'0 0.0
2017-Sep-19 19:30N 38°29' W 008°47'0 0.0
2017-Sep-19 19:00N 38°29' W 008°47'0 0.0
2017-Sep-19 18:30N 38°29' W 008°47'0 0.0
2017-Sep-19 18:00N 38°29' W 008°47'0 0.0
2017-Sep-19 17:30N 38°29' W 008°47'0 0.0
2017-Sep-19 17:00N 38°29' W 008°47'0 0.0
2017-Sep-19 16:30N 38°29' W 008°47'0 0.0
2017-Sep-19 15:57N 38°29' W 008°47'0 0.0
2017-Sep-19 15:30N 38°29' W 008°47'0 0.0
2017-Sep-19 15:00N 38°29' W 008°47'0 0.0
2017-Sep-19 14:29N 38°29' W 008°47'0 0.0
2017-Sep-19 14:00N 38°29' W 008°47'0 0.0
2017-Sep-19 13:30N 38°29' W 008°47'0 0.0
2017-Sep-19 12:45N 38°29' W 008°47'0 0.0
2017-Sep-19 12:30N 38°29' W 008°47'0 0.0
2017-Sep-19 12:00N 38°29' W 008°47'0 0.0
2017-Sep-19 11:30N 38°29' W 008°47'0 0.0
2017-Sep-19 11:00N 38°29' W 008°47'0 0.0
2017-Sep-19 10:30N 38°29' W 008°47'0 0.0
2017-Sep-19 10:00N 38°29' W 008°47'  
Track history (hours):
 
Tides and Currents Weather Stations Pressure Air Temp Water Temp Dewpoint Dewpoint Depression Visibility Wind Speed Wind Dir Waves Ship Positions

Navios Orbiter

Last reported at 2017-Sep-29 09:54 UTC. Time now 2017-Oct-17 04:17 UTC.
Position N 40°02' W 031°52'.
Warning: this ship's position is 17 days out of date.

Length 225 m; draft 8.9 m.

Type: Cargo ship. MMSI: 356276000.

Date/timePositionNaut miles runAvg speedWind from/ knotsBaromVisibWave heightAir tempDewpointWater temp
2017-Sep-29 09:54N 40°02' W 031°52'712.2
2017-Sep-29 09:21N 40°03' W 031°43'2312.3
2017-Sep-29 07:29N 40°08' W 031°14'612.5
2017-Sep-29 07:00N 40°09' W 031°06'3312.7
2017-Sep-29 04:26N 40°14' W 030°24'612.5
2017-Sep-29 03:56N 40°15' W 030°16'612.8
2017-Sep-29 03:29N 40°16' W 030°08'712.8
2017-Sep-29 02:56N 40°17' W 029°59'  
2017-Sep-26 20:46N 39°36' W 015°39'312.8
2017-Sep-26 20:31N 39°35' W 015°34'612.8
2017-Sep-26 20:00N 39°33' W 015°27'912.8
2017-Sep-26 19:17N 39°30' W 015°15'412.9
2017-Sep-26 18:59N 39°29' W 015°10'813.0
2017-Sep-26 18:20N 39°26' W 014°60'412.8
2017-Sep-26 18:00N 39°25' W 014°55'612.7
2017-Sep-26 17:31N 39°23' W 014°47'612.8
2017-Sep-26 17:00N 39°21' W 014°39'612.9
2017-Sep-26 16:31N 39°19' W 014°31'612.8
2017-Sep-26 16:01N 39°17' W 014°23'812.7
2017-Sep-26 15:21N 39°15' W 014°13'512.7
2017-Sep-26 14:58N 39°13' W 014°07'1312.9
2017-Sep-26 13:58N 39°09' W 013°51'613.2
2017-Sep-26 13:31N 39°08' W 013°44'713.0
2017-Sep-26 13:00N 39°06' W 013°35'612.7
2017-Sep-26 12:31N 39°04' W 013°28'612.7
2017-Sep-26 12:01N 39°02' W 013°20'612.9
2017-Sep-26 11:30N 38°60' W 013°12'713.2
2017-Sep-26 11:01N 38°58' W 013°04'713.4
2017-Sep-26 10:30N 38°56' W 012°56'913.4
2017-Sep-26 09:51N 38°53' W 012°45'513.4
2017-Sep-26 09:30N 38°52' W 012°39'713.5
2017-Sep-26 09:00N 38°50' W 012°31'1213.4
2017-Sep-26 08:06N 38°46' W 012°16'313.2
2017-Sep-26 07:51N 38°45' W 012°12'612.9
2017-Sep-26 07:21N 38°43' W 012°04'813.4
2017-Sep-26 06:44N 38°41' W 011°54'413.4
2017-Sep-26 06:28N 38°40' W 011°50'1313.1
2017-Sep-26 05:29N 38°36' W 011°34'612.9
2017-Sep-26 05:00N 38°34' W 011°26'713.4
2017-Sep-26 04:30N 38°32' W 011°18'813.1
2017-Sep-26 03:54N 38°30' W 011°09'513.2
2017-Sep-26 03:31N 38°28' W 011°02'813.3
2017-Sep-26 02:55N 38°26' W 010°53'512.9
2017-Sep-26 02:30N 38°24' W 010°46'612.7
2017-Sep-26 02:00N 38°22' W 010°38'613.0
2017-Sep-26 01:31N 38°20' W 010°31'713.1
2017-Sep-26 01:01N 38°20' W 010°22'612.8
2017-Sep-26 00:30N 38°20' W 010°14'713.0
2017-Sep-26 00:00N 38°20' W 010°06'612.8
2017-Sep-25 23:31N 38°20' W 009°58'612.8
2017-Sep-25 23:01N 38°20' W 009°49'612.3
2017-Sep-25 22:30N 38°20' W 009°42'612.5
2017-Sep-25 22:00N 38°20' W 009°34'612.4
2017-Sep-25 21:31N 38°20' W 009°26'612.6
2017-Sep-25 21:01N 38°20' W 009°18'611.4
2017-Sep-25 20:30N 38°17' W 009°11'5 9.1
2017-Sep-25 20:01N 38°15' W 009°06'1 2.6
2017-Sep-25 19:31N 38°16' W 009°04'1 1.7
2017-Sep-25 19:00N 38°16' W 009°05'1 1.7
2017-Sep-25 18:31N 38°17' W 009°05'1 1.6
2017-Sep-25 18:00N 38°18' W 009°05'1 1.6
2017-Sep-25 17:31N 38°19' W 009°05'1 2.1
2017-Sep-25 17:00N 38°20' W 009°05'4 8.1
2017-Sep-25 16:31N 38°23' W 009°02'2 3.3
2017-Sep-25 16:00N 38°24' W 009°00'0 0.9
2017-Sep-25 15:30N 38°24' W 009°01'1 1.1
2017-Sep-25 15:00N 38°23' W 009°01'1 2.4
2017-Sep-25 14:31N 38°22' W 009°00'4 7.4
2017-Sep-25 14:01N 38°25' W 008°57'1 2.7
2017-Sep-25 13:31N 38°23' W 008°57'4 7.2
2017-Sep-25 13:01N 38°27' W 008°59'4 8.5
2017-Sep-25 12:31N 38°30' W 008°55'3 6.0
2017-Sep-25 12:00N 38°29' W 008°52'3 5.6
2017-Sep-25 11:31N 38°28' W 008°48'1 1.8
2017-Sep-25 11:00N 38°28' W 008°47'0 0.0
2017-Sep-25 10:30N 38°28' W 008°47'0 0.0
2017-Sep-25 09:57N 38°28' W 008°47'0 0.0
2017-Sep-25 09:27N 38°28' W 008°47'0 0.0
2017-Sep-25 09:00N 38°28' W 008°47'0 0.0
2017-Sep-25 08:30N 38°28' W 008°47'0 0.0
2017-Sep-25 06:27N 38°28' W 008°47'0 0.0
2017-Sep-25 05:21N 38°28' W 008°47'0 0.0
2017-Sep-25 05:00N 38°28' W 008°47'0 0.0
2017-Sep-25 04:18N 38°28' W 008°47'0 0.0
2017-Sep-25 02:33N 38°28' W 008°47'0 0.0
2017-Sep-25 02:24N 38°28' W 008°47'0 0.0
2017-Sep-25 00:15N 38°28' W 008°47'0 0.0
2017-Sep-25 00:00N 38°28' W 008°47'0 0.0
2017-Sep-24 23:30N 38°28' W 008°47'0 0.0
2017-Sep-24 23:00N 38°28' W 008°47'0 0.0
2017-Sep-24 22:30N 38°28' W 008°47'0 0.0
2017-Sep-24 22:00N 38°28' W 008°47'0 0.0
2017-Sep-24 21:30N 38°28' W 008°47'0 0.0
2017-Sep-24 21:00N 38°28' W 008°47'0 0.0
2017-Sep-24 20:30N 38°28' W 008°47'0 0.0
2017-Sep-24 20:00N 38°28' W 008°47'0 0.0
2017-Sep-24 19:30N 38°28' W 008°47'0 0.0
2017-Sep-24 19:00N 38°28' W 008°47'0 0.0
2017-Sep-24 18:21N 38°28' W 008°47'0 0.0
2017-Sep-24 18:00N 38°28' W 008°47'0 0.0
2017-Sep-24 17:30N 38°28' W 008°47'0 0.0
2017-Sep-24 17:00N 38°28' W 008°47'0 0.0
2017-Sep-24 16:30N 38°28' W 008°47'0 0.0
2017-Sep-24 16:00N 38°28' W 008°47'0 0.0
2017-Sep-24 15:30N 38°28' W 008°47'0 0.0
2017-Sep-24 15:00N 38°28' W 008°47'0 0.0
2017-Sep-24 14:30N 38°28' W 008°47'0 0.0
2017-Sep-24 14:00N 38°28' W 008°47'0 0.0
2017-Sep-24 13:30N 38°28' W 008°47'0 0.0
2017-Sep-24 13:00N 38°28' W 008°47'0 0.0
2017-Sep-24 12:30N 38°28' W 008°47'0 0.0
2017-Sep-24 11:57N 38°28' W 008°47'0 0.0
2017-Sep-24 11:30N 38°28' W 008°47'0 0.0
2017-Sep-24 11:00N 38°28' W 008°47'0 0.0
2017-Sep-24 10:30N 38°28' W 008°47'0 0.0
2017-Sep-24 10:00N 38°28' W 008°47'0 0.0
2017-Sep-24 09:30N 38°28' W 008°47'0 0.0
2017-Sep-24 09:00N 38°28' W 008°47'0 0.0
2017-Sep-24 08:30N 38°28' W 008°47'0 0.0
2017-Sep-24 08:00N 38°28' W 008°47'0 0.0
2017-Sep-24 07:27N 38°28' W 008°47'0 0.0
2017-Sep-24 07:00N 38°28' W 008°47'0 0.0
2017-Sep-24 06:30N 38°28' W 008°47'0 0.0
2017-Sep-24 06:00N 38°28' W 008°47'0 0.0
2017-Sep-24 05:30N 38°28' W 008°47'0 0.0
2017-Sep-24 05:00N 38°28' W 008°47'0 0.0
2017-Sep-24 04:30N 38°28' W 008°47'0 0.0
2017-Sep-24 03:59N 38°28' W 008°47'0 0.0
2017-Sep-24 03:30N 38°28' W 008°47'0 0.0
2017-Sep-24 02:57N 38°28' W 008°47'0 0.0
2017-Sep-24 02:30N 38°28' W 008°47'0 0.0
2017-Sep-24 02:00N 38°28' W 008°47'0 0.0
2017-Sep-24 01:29N 38°28' W 008°47'0 0.0
2017-Sep-24 01:00N 38°28' W 008°47'0 0.0
2017-Sep-24 00:30N 38°28' W 008°47'0 0.0
2017-Sep-24 00:00N 38°28' W 008°47'0 0.0
2017-Sep-23 23:27N 38°28' W 008°47'0 0.0
2017-Sep-23 23:00N 38°28' W 008°47'0 0.0
2017-Sep-23 22:27N 38°28' W 008°47'0 0.0
2017-Sep-23 22:00N 38°28' W 008°47'0 0.0
2017-Sep-23 21:30N 38°28' W 008°47'0 0.0
2017-Sep-23 21:00N 38°28' W 008°47'0 0.0
2017-Sep-23 20:30N 38°28' W 008°47'0 0.0
2017-Sep-23 20:00N 38°28' W 008°47'0 0.0
2017-Sep-22 02:00N 38°28' W 008°47'0 0.0
2017-Sep-22 01:30N 38°28' W 008°47'0 0.0
2017-Sep-22 01:00N 38°28' W 008°47'0 0.0
2017-Sep-22 00:30N 38°28' W 008°47'0 0.0
2017-Sep-22 00:00N 38°28' W 008°47'0 0.0
2017-Sep-21 23:30N 38°28' W 008°47'0 0.0
2017-Sep-21 23:00N 38°28' W 008°47'0 0.0
2017-Sep-21 22:27N 38°28' W 008°47'0 0.0
2017-Sep-21 22:00N 38°28' W 008°47'0 0.0
2017-Sep-21 21:27N 38°28' W 008°47'0 0.0
2017-Sep-21 20:57N 38°28' W 008°47'0 0.0
2017-Sep-21 20:30N 38°28' W 008°47'0 0.0
2017-Sep-21 19:54N 38°28' W 008°47'0 0.0
2017-Sep-21 19:30N 38°28' W 008°47'0 0.0
2017-Sep-21 19:00N 38°28' W 008°47'0 0.0
2017-Sep-21 18:30N 38°28' W 008°47'0 0.0
2017-Sep-21 18:00N 38°28' W 008°47'0 0.0
2017-Sep-21 17:30N 38°28' W 008°47'0 0.0
2017-Sep-21 16:57N 38°28' W 008°47'0 0.0
2017-Sep-21 16:30N 38°28' W 008°47'0 0.0
2017-Sep-21 16:00N 38°28' W 008°47'0 0.0
2017-Sep-21 15:30N 38°28' W 008°47'0 0.0
2017-Sep-21 15:00N 38°28' W 008°47'0 0.0
2017-Sep-21 14:30N 38°28' W 008°47'0 0.0
2017-Sep-21 14:00N 38°28' W 008°47'0 0.0
2017-Sep-21 13:30N 38°28' W 008°47'0 0.0
2017-Sep-21 13:00N 38°28' W 008°47'0 0.0
2017-Sep-21 12:30N 38°28' W 008°47'0 0.0
2017-Sep-21 12:00N 38°28' W 008°47'0 0.0
2017-Sep-21 11:30N 38°28' W 008°47'0 0.0
2017-Sep-21 10:51N 38°28' W 008°47'0 0.0
2017-Sep-21 10:30N 38°28' W 008°47'0 0.0
2017-Sep-21 10:00N 38°28' W 008°47'0 0.0
2017-Sep-21 09:30N 38°28' W 008°47'0 0.0
2017-Sep-21 09:00N 38°28' W 008°47'0 0.0
2017-Sep-21 08:30N 38°28' W 008°47'0 0.0
2017-Sep-21 08:00N 38°28' W 008°47'0 0.0
2017-Sep-21 07:30N 38°28' W 008°47'0 0.0
2017-Sep-21 07:00N 38°28' W 008°47'0 0.0
2017-Sep-21 06:24N 38°28' W 008°47'0 0.0
2017-Sep-21 06:00N 38°28' W 008°47'0 0.0
2017-Sep-21 05:30N 38°28' W 008°47'0 0.0
2017-Sep-21 04:57N 38°28' W 008°47'0 0.0
2017-Sep-21 04:30N 38°28' W 008°47'0 0.0
2017-Sep-21 04:00N 38°28' W 008°47'0 0.0
2017-Sep-21 03:30N 38°28' W 008°47'0 0.3
2017-Sep-21 02:57N 38°28' W 008°47'0 0.5
2017-Sep-21 02:30N 38°28' W 008°47'0 0.0
2017-Sep-21 02:00N 38°28' W 008°47'0 0.0
2017-Sep-21 01:27N 38°28' W 008°47'0 0.0
2017-Sep-21 01:00N 38°28' W 008°47'0 0.0
2017-Sep-21 00:30N 38°28' W 008°47'0 0.0
2017-Sep-21 00:00N 38°28' W 008°47'0 0.0
2017-Sep-20 23:30N 38°28' W 008°47'0 0.0
2017-Sep-20 23:00N 38°28' W 008°47'0 0.0
2017-Sep-20 22:30N 38°28' W 008°47'0 0.0
2017-Sep-20 22:00N 38°28' W 008°47'0 0.0
2017-Sep-20 21:27N 38°28' W 008°47'0 0.0
2017-Sep-20 21:00N 38°28' W 008°47'0 0.0
2017-Sep-20 20:30N 38°28' W 008°47'0 0.1
2017-Sep-20 20:00N 38°28' W 008°47'0 0.1
2017-Sep-20 19:30N 38°29' W 008°47'0 0.2
2017-Sep-20 19:00N 38°29' W 008°47'0 0.0
2017-Sep-20 18:30N 38°29' W 008°47'0 0.0
2017-Sep-20 18:00N 38°29' W 008°47'0 0.0
2017-Sep-20 17:30N 38°29' W 008°47'0 0.0
2017-Sep-20 17:00N 38°29' W 008°47'0 0.0
2017-Sep-20 16:30N 38°29' W 008°47'0 0.0
2017-Sep-20 16:00N 38°29' W 008°47'0 0.0
2017-Sep-20 15:30N 38°29' W 008°47'0 0.0
2017-Sep-20 15:00N 38°29' W 008°47'0 0.0
2017-Sep-20 13:33N 38°29' W 008°47'0 0.0
2017-Sep-20 13:24N 38°29' W 008°47'0 0.0
2017-Sep-20 13:00N 38°29' W 008°47'0 0.0
2017-Sep-20 12:30N 38°29' W 008°47'0 0.0
2017-Sep-20 12:00N 38°29' W 008°47'0 0.0
2017-Sep-20 11:30N 38°29' W 008°47'0 0.0
2017-Sep-20 11:00N 38°29' W 008°47'0 0.0
2017-Sep-20 10:30N 38°29' W 008°47'0 0.0
2017-Sep-20 10:00N 38°29' W 008°47'0 0.0
2017-Sep-20 09:08N 38°29' W 008°47'0 0.0
2017-Sep-20 09:00N 38°29' W 008°47'0 0.0
2017-Sep-20 08:30N 38°29' W 008°47'0 0.0
2017-Sep-20 08:00N 38°29' W 008°47'0 0.0
2017-Sep-20 07:27N 38°29' W 008°47'0 0.0
2017-Sep-20 06:57N 38°29' W 008°47'0 0.0
2017-Sep-20 06:30N 38°29' W 008°47'0 0.0
2017-Sep-20 06:00N 38°29' W 008°47'0 0.0
2017-Sep-20 05:27N 38°29' W 008°47'0 0.0
2017-Sep-20 04:57N 38°29' W 008°47'0 0.0
2017-Sep-20 04:29N 38°29' W 008°47'0 0.0
2017-Sep-20 04:00N 38°29' W 008°47'0 0.0
2017-Sep-20 03:30N 38°29' W 008°47'0 0.0
2017-Sep-20 03:00N 38°29' W 008°47'0 0.0
2017-Sep-20 02:30N 38°29' W 008°47'0 0.0
2017-Sep-20 02:00N 38°29' W 008°47'0 0.0
2017-Sep-20 01:30N 38°29' W 008°47'0 0.0
2017-Sep-20 01:00N 38°29' W 008°47'0 0.0
2017-Sep-20 00:30N 38°29' W 008°47'0 0.0
2017-Sep-20 00:00N 38°29' W 008°47'0 0.0
2017-Sep-19 23:30N 38°29' W 008°47'0 0.0
2017-Sep-19 23:00N 38°29' W 008°47'0 0.0
2017-Sep-19 22:30N 38°29' W 008°47'0 0.0
2017-Sep-19 22:00N 38°29' W 008°47'0 0.0
2017-Sep-19 21:27N 38°29' W 008°47'0 0.0
2017-Sep-19 21:00N 38°29' W 008°47'0 0.0
2017-Sep-19 20:30N 38°29' W 008°47'0 0.0
2017-Sep-19 19:57N 38°29' W 008°47'0 0.0
2017-Sep-19 19:30N 38°29' W 008°47'0 0.0
2017-Sep-19 19:00N 38°29' W 008°47'0 0.0
2017-Sep-19 18:30N 38°29' W 008°47'0 0.0
2017-Sep-19 18:00N 38°29' W 008°47'0 0.0
2017-Sep-19 17:30N 38°29' W 008°47'0 0.0
2017-Sep-19 17:00N 38°29' W 008°47'0 0.0
2017-Sep-19 16:30N 38°29' W 008°47'0 0.0
2017-Sep-19 15:57N 38°29' W 008°47'0 0.0
2017-Sep-19 15:30N 38°29' W 008°47'0 0.0
2017-Sep-19 15:00N 38°29' W 008°47'0 0.0
2017-Sep-19 14:29N 38°29' W 008°47'0 0.0
2017-Sep-19 14:00N 38°29' W 008°47'0 0.0
2017-Sep-19 13:30N 38°29' W 008°47'0 0.0
2017-Sep-19 12:45N 38°29' W 008°47'0 0.0
2017-Sep-19 12:30N 38°29' W 008°47'0 0.0
2017-Sep-19 12:00N 38°29' W 008°47'0 0.0
2017-Sep-19 11:30N 38°29' W 008°47'0 0.0
2017-Sep-19 11:00N 38°29' W 008°47'0 0.0
2017-Sep-19 10:30N 38°29' W 008°47'0 0.0
2017-Sep-19 10:00N 38°29' W 008°47'  

Dump ship's entire track history